sensor_id;sensor_type;location;lat;lon;timestamp;P1;durP1;ratioP1;P2;durP2;ratioP2
23304;SDS011;11821;51.456;8.844;2022-08-01T00:01:04;5.75;;;4.57;;
23304;SDS011;11821;51.456;8.844;2022-08-01T00:03:30;4.38;;;3.97;;
23304;SDS011;11821;51.456;8.844;2022-08-01T00:05:57;8.43;;;5.55;;
23304;SDS011;11821;51.456;8.844;2022-08-01T00:08:23;5.25;;;4.85;;
23304;SDS011;11821;51.456;8.844;2022-08-01T00:10:49;6.78;;;6.28;;
23304;SDS011;11821;51.456;8.844;2022-08-01T00:13:15;7.40;;;6.70;;
23304;SDS011;11821;51.456;8.844;2022-08-01T00:15:42;10.23;;;6.93;;
23304;SDS011;11821;51.456;8.844;2022-08-01T00:18:08;7.22;;;6.72;;
23304;SDS011;11821;51.456;8.844;2022-08-01T00:20:34;7.60;;;6.85;;
23304;SDS011;11821;51.456;8.844;2022-08-01T00:23:02;8.27;;;7.47;;
23304;SDS011;11821;51.456;8.844;2022-08-01T00:25:29;7.85;;;7.20;;
23304;SDS011;11821;51.456;8.844;2022-08-01T00:27:55;7.25;;;6.55;;
23304;SDS011;11821;51.456;8.844;2022-08-01T00:30:21;7.50;;;6.90;;
23304;SDS011;11821;51.456;8.844;2022-08-01T00:32:47;7.82;;;7.22;;
23304;SDS011;11821;51.456;8.844;2022-08-01T00:35:13;8.75;;;7.95;;
23304;SDS011;11821;51.456;8.844;2022-08-01T00:37:40;10.18;;;8.02;;
23304;SDS011;11821;51.456;8.844;2022-08-01T00:40:06;8.75;;;7.70;;
23304;SDS011;11821;51.456;8.844;2022-08-01T00:42:33;9.25;;;8.45;;
23304;SDS011;11821;51.456;8.844;2022-08-01T00:44:59;9.02;;;8.32;;
23304;SDS011;11821;51.456;8.844;2022-08-01T00:47:25;6.78;;;6.18;;
23304;SDS011;11821;51.456;8.844;2022-08-01T00:49:52;9.30;;;8.38;;
23304;SDS011;11821;51.456;8.844;2022-08-01T00:52:18;9.40;;;8.15;;
23304;SDS011;11821;51.456;8.844;2022-08-01T00:54:44;9.48;;;8.48;;
23304;SDS011;11821;51.456;8.844;2022-08-01T00:57:11;10.65;;;9.55;;
23304;SDS011;11821;51.456;8.844;2022-08-01T00:59:37;10.68;;;8.60;;
23304;SDS011;11821;51.456;8.844;2022-08-01T01:02:05;9.82;;;8.10;;
23304;SDS011;11821;51.456;8.844;2022-08-01T01:04:31;11.13;;;9.23;;
23304;SDS011;11821;51.456;8.844;2022-08-01T01:07:09;10.57;;;7.43;;
23304;SDS011;11821;51.456;8.844;2022-08-01T01:09:44;13.25;;;9.75;;
23304;SDS011;11821;51.456;8.844;2022-08-01T01:15:04;10.38;;;9.40;;
23304;SDS011;11821;51.456;8.844;2022-08-01T01:20:30;11.18;;;10.15;;
23304;SDS011;11821;51.456;8.844;2022-08-01T01:31:33;8.68;;;7.80;;
23304;SDS011;11821;51.456;8.844;2022-08-01T01:34:07;11.00;;;10.02;;
23304;SDS011;11821;51.456;8.844;2022-08-01T01:36:36;11.02;;;9.60;;
23304;SDS011;11821;51.456;8.844;2022-08-01T01:39:05;11.73;;;10.52;;
23304;SDS011;11821;51.456;8.844;2022-08-01T01:41:32;12.70;;;11.52;;
23304;SDS011;11821;51.456;8.844;2022-08-01T01:44:02;10.25;;;9.27;;
23304;SDS011;11821;51.456;8.844;2022-08-01T01:46:30;10.63;;;9.82;;
23304;SDS011;11821;51.456;8.844;2022-08-01T01:48:57;11.52;;;10.40;;
23304;SDS011;11821;51.456;8.844;2022-08-01T01:51:25;11.48;;;10.52;;
23304;SDS011;11821;51.456;8.844;2022-08-01T01:53:54;10.65;;;9.70;;
23304;SDS011;11821;51.456;8.844;2022-08-01T01:56:22;11.98;;;10.70;;
23304;SDS011;11821;51.456;8.844;2022-08-01T01:58:51;12.13;;;11.20;;
23304;SDS011;11821;51.456;8.844;2022-08-01T02:01:21;11.65;;;10.48;;
23304;SDS011;11821;51.456;8.844;2022-08-01T02:03:51;11.77;;;10.60;;
23304;SDS011;11821;51.456;8.844;2022-08-01T02:06:19;10.93;;;10.10;;
23304;SDS011;11821;51.456;8.844;2022-08-01T02:08:47;11.80;;;10.70;;
23304;SDS011;11821;51.456;8.844;2022-08-01T02:11:13;10.15;;;9.25;;
23304;SDS011;11821;51.456;8.844;2022-08-01T02:13:55;12.30;;;10.98;;
23304;SDS011;11821;51.456;8.844;2022-08-01T02:16:28;11.25;;;10.25;;
23304;SDS011;11821;51.456;8.844;2022-08-01T02:18:57;11.60;;;10.52;;
23304;SDS011;11821;51.456;8.844;2022-08-01T02:21:26;10.27;;;9.35;;
23304;SDS011;11821;51.456;8.844;2022-08-01T02:24:07;12.32;;;11.23;;
23304;SDS011;11821;51.456;8.844;2022-08-01T02:26:46;12.20;;;11.10;;
23304;SDS011;11821;51.456;8.844;2022-08-01T02:29:17;11.52;;;10.48;;
23304;SDS011;11821;51.456;8.844;2022-08-01T02:31:48;9.65;;;8.75;;
23304;SDS011;11821;51.456;8.844;2022-08-01T02:34:20;13.18;;;9.52;;
23304;SDS011;11821;51.456;8.844;2022-08-01T02:36:51;8.93;;;8.07;;
23304;SDS011;11821;51.456;8.844;2022-08-01T02:39:21;6.97;;;6.30;;
23304;SDS011;11821;51.456;8.844;2022-08-01T02:41:49;9.30;;;8.50;;
23304;SDS011;11821;51.456;8.844;2022-08-01T02:44:23;9.43;;;8.63;;
23304;SDS011;11821;51.456;8.844;2022-08-01T02:46:54;10.20;;;6.57;;
23304;SDS011;11821;51.456;8.844;2022-08-01T02:49:35;7.28;;;6.63;;
23304;SDS011;11821;51.456;8.844;2022-08-01T02:52:08;9.32;;;8.48;;
23304;SDS011;11821;51.456;8.844;2022-08-01T02:54:37;7.70;;;6.93;;
23304;SDS011;11821;51.456;8.844;2022-08-01T02:57:06;9.30;;;8.60;;
23304;SDS011;11821;51.456;8.844;2022-08-01T02:59:35;10.52;;;9.63;;
23304;SDS011;11821;51.456;8.844;2022-08-01T03:02:03;11.02;;;9.95;;
23304;SDS011;11821;51.456;8.844;2022-08-01T03:04:32;11.07;;;9.98;;
23304;SDS011;11821;51.456;8.844;2022-08-01T03:07:00;8.77;;;8.07;;
23304;SDS011;11821;51.456;8.844;2022-08-01T03:09:28;11.90;;;9.35;;
23304;SDS011;11821;51.456;8.844;2022-08-01T03:11:59;10.20;;;9.23;;
23304;SDS011;11821;51.456;8.844;2022-08-01T03:14:28;7.20;;;6.50;;
23304;SDS011;11821;51.456;8.844;2022-08-01T03:16:56;10.35;;;9.35;;
23304;SDS011;11821;51.456;8.844;2022-08-01T03:19:26;11.88;;;9.30;;
23304;SDS011;11821;51.456;8.844;2022-08-01T03:21:54;9.77;;;9.00;;
23304;SDS011;11821;51.456;8.844;2022-08-01T03:24:23;10.70;;;9.48;;
23304;SDS011;11821;51.456;8.844;2022-08-01T03:26:52;10.60;;;9.60;;
23304;SDS011;11821;51.456;8.844;2022-08-01T03:29:22;9.52;;;8.52;;
23304;SDS011;11821;51.456;8.844;2022-08-01T03:31:51;10.25;;;9.05;;
23304;SDS011;11821;51.456;8.844;2022-08-01T03:34:18;11.60;;;10.40;;
23304;SDS011;11821;51.456;8.844;2022-08-01T03:36:48;12.27;;;9.63;;
23304;SDS011;11821;51.456;8.844;2022-08-01T03:39:22;10.55;;;9.55;;
23304;SDS011;11821;51.456;8.844;2022-08-01T03:42:07;10.90;;;9.95;;
23304;SDS011;11821;51.456;8.844;2022-08-01T03:44:38;12.77;;;11.45;;
23304;SDS011;11821;51.456;8.844;2022-08-01T03:47:07;12.32;;;10.95;;
23304;SDS011;11821;51.456;8.844;2022-08-01T03:49:37;11.43;;;9.13;;
23304;SDS011;11821;51.456;8.844;2022-08-01T03:52:08;11.25;;;8.65;;
23304;SDS011;11821;51.456;8.844;2022-08-01T03:54:42;9.48;;;5.32;;
23304;SDS011;11821;51.456;8.844;2022-08-01T03:57:11;6.45;;;5.47;;
23304;SDS011;11821;51.456;8.844;2022-08-01T03:59:38;5.80;;;4.65;;
23304;SDS011;11821;51.456;8.844;2022-08-01T04:02:06;5.35;;;4.78;;
23304;SDS011;11821;51.456;8.844;2022-08-01T04:04:33;6.85;;;5.45;;
23304;SDS011;11821;51.456;8.844;2022-08-01T04:06:59;4.57;;;4.18;;
23304;SDS011;11821;51.456;8.844;2022-08-01T04:09:32;3.80;;;3.60;;
23304;SDS011;11821;51.456;8.844;2022-08-01T04:11:59;2.97;;;2.78;;
23304;SDS011;11821;51.456;8.844;2022-08-01T04:14:26;2.60;;;2.40;;
23304;SDS011;11821;51.456;8.844;2022-08-01T04:16:54;4.13;;;2.80;;
23304;SDS011;11821;51.456;8.844;2022-08-01T04:19:20;3.22;;;3.03;;
23304;SDS011;11821;51.456;8.844;2022-08-01T04:21:46;3.65;;;3.35;;
23304;SDS011;11821;51.456;8.844;2022-08-01T04:24:13;3.10;;;2.85;;
23304;SDS011;11821;51.456;8.844;2022-08-01T04:26:43;2.45;;;2.35;;
23304;SDS011;11821;51.456;8.844;2022-08-01T04:29:11;2.53;;;2.28;;
23304;SDS011;11821;51.456;8.844;2022-08-01T04:31:41;3.28;;;2.80;;
23304;SDS011;11821;51.456;8.844;2022-08-01T04:34:09;2.53;;;2.15;;
23304;SDS011;11821;51.456;8.844;2022-08-01T04:36:38;2.85;;;2.55;;
23304;SDS011;11821;51.456;8.844;2022-08-01T04:39:07;3.13;;;2.80;;
23304;SDS011;11821;51.456;8.844;2022-08-01T04:41:35;3.20;;;2.30;;
23304;SDS011;11821;51.456;8.844;2022-08-01T04:44:02;2.40;;;2.20;;
23304;SDS011;11821;51.456;8.844;2022-08-01T04:46:30;2.70;;;2.50;;
23304;SDS011;11821;51.456;8.844;2022-08-01T04:48:58;3.50;;;3.20;;
23304;SDS011;11821;51.456;8.844;2022-08-01T04:51:26;4.05;;;3.58;;
23304;SDS011;11821;51.456;8.844;2022-08-01T04:53:52;3.65;;;3.35;;
23304;SDS011;11821;51.456;8.844;2022-08-01T04:56:19;2.55;;;2.38;;
23304;SDS011;11821;51.456;8.844;2022-08-01T04:58:46;3.25;;;3.05;;
23304;SDS011;11821;51.456;8.844;2022-08-01T05:01:12;3.67;;;3.47;;
23304;SDS011;11821;51.456;8.844;2022-08-01T05:03:39;3.60;;;3.30;;
23304;SDS011;11821;51.456;8.844;2022-08-01T05:06:06;6.22;;;4.30;;
23304;SDS011;11821;51.456;8.844;2022-08-01T05:08:32;4.95;;;4.55;;
23304;SDS011;11821;51.456;8.844;2022-08-01T05:10:58;4.47;;;4.15;;
23304;SDS011;11821;51.456;8.844;2022-08-01T05:13:25;4.60;;;4.30;;
23304;SDS011;11821;51.456;8.844;2022-08-01T05:15:51;4.88;;;4.22;;
23304;SDS011;11821;51.456;8.844;2022-08-01T05:18:18;5.28;;;4.78;;
23304;SDS011;11821;51.456;8.844;2022-08-01T05:20:44;6.60;;;5.13;;
23304;SDS011;11821;51.456;8.844;2022-08-01T05:23:10;5.97;;;5.38;;
23304;SDS011;11821;51.456;8.844;2022-08-01T05:25:36;5.50;;;5.00;;
23304;SDS011;11821;51.456;8.844;2022-08-01T05:28:04;6.97;;;6.00;;
23304;SDS011;11821;51.456;8.844;2022-08-01T05:30:30;6.32;;;5.72;;
23304;SDS011;11821;51.456;8.844;2022-08-01T05:32:56;5.57;;;5.07;;
23304;SDS011;11821;51.456;8.844;2022-08-01T05:35:22;6.30;;;5.80;;
23304;SDS011;11821;51.456;8.844;2022-08-01T05:37:49;6.20;;;5.60;;
23304;SDS011;11821;51.456;8.844;2022-08-01T05:40:15;6.05;;;5.60;;
23304;SDS011;11821;51.456;8.844;2022-08-01T05:42:41;6.15;;;5.65;;
23304;SDS011;11821;51.456;8.844;2022-08-01T05:45:07;6.45;;;5.95;;
23304;SDS011;11821;51.456;8.844;2022-08-01T05:47:34;7.97;;;7.32;;
23304;SDS011;11821;51.456;8.844;2022-08-01T05:50:00;6.10;;;5.70;;
23304;SDS011;11821;51.456;8.844;2022-08-01T05:52:26;7.03;;;6.32;;
23304;SDS011;11821;51.456;8.844;2022-08-01T05:54:54;7.03;;;6.47;;
23304;SDS011;11821;51.456;8.844;2022-08-01T05:57:20;7.15;;;6.55;;
23304;SDS011;11821;51.456;8.844;2022-08-01T05:59:46;7.97;;;6.57;;
23304;SDS011;11821;51.456;8.844;2022-08-01T06:02:12;6.72;;;6.00;;
23304;SDS011;11821;51.456;8.844;2022-08-01T06:04:38;6.20;;;5.70;;
23304;SDS011;11821;51.456;8.844;2022-08-01T06:07:05;6.00;;;5.40;;
23304;SDS011;11821;51.456;8.844;2022-08-01T06:09:31;5.32;;;4.93;;
23304;SDS011;11821;51.456;8.844;2022-08-01T06:11:57;6.47;;;5.97;;
23304;SDS011;11821;51.456;8.844;2022-08-01T06:14:23;9.07;;;6.13;;
23304;SDS011;11821;51.456;8.844;2022-08-01T06:16:50;5.95;;;5.55;;
23304;SDS011;11821;51.456;8.844;2022-08-01T06:19:16;5.07;;;4.78;;
23304;SDS011;11821;51.456;8.844;2022-08-01T06:21:42;4.30;;;4.00;;
23304;SDS011;11821;51.456;8.844;2022-08-01T06:24:08;4.97;;;4.57;;
23304;SDS011;11821;51.456;8.844;2022-08-01T06:26:34;5.75;;;4.30;;
23304;SDS011;11821;51.456;8.844;2022-08-01T06:29:02;4.72;;;4.30;;
23304;SDS011;11821;51.456;8.844;2022-08-01T06:31:29;4.68;;;4.25;;
23304;SDS011;11821;51.456;8.844;2022-08-01T06:33:56;5.55;;;5.05;;
23304;SDS011;11821;51.456;8.844;2022-08-01T06:36:22;5.20;;;4.80;;
23304;SDS011;11821;51.456;8.844;2022-08-01T06:38:49;4.55;;;4.25;;
23304;SDS011;11821;51.456;8.844;2022-08-01T06:41:15;4.72;;;4.28;;
23304;SDS011;11821;51.456;8.844;2022-08-01T06:43:41;4.90;;;4.50;;
23304;SDS011;11821;51.456;8.844;2022-08-01T06:46:07;4.18;;;3.78;;
23304;SDS011;11821;51.456;8.844;2022-08-01T06:48:34;4.80;;;4.32;;
23304;SDS011;11821;51.456;8.844;2022-08-01T06:51:04;4.38;;;3.97;;
23304;SDS011;11821;51.456;8.844;2022-08-01T06:53:37;4.50;;;4.13;;
23304;SDS011;11821;51.456;8.844;2022-08-01T06:56:04;4.20;;;3.85;;
23304;SDS011;11821;51.456;8.844;2022-08-01T06:58:32;3.60;;;3.35;;
23304;SDS011;11821;51.456;8.844;2022-08-01T07:00:59;2.67;;;2.47;;
23304;SDS011;11821;51.456;8.844;2022-08-01T07:03:26;3.30;;;3.10;;
23304;SDS011;11821;51.456;8.844;2022-08-01T07:05:52;2.47;;;2.28;;
23304;SDS011;11821;51.456;8.844;2022-08-01T07:08:18;2.03;;;1.83;;
23304;SDS011;11821;51.456;8.844;2022-08-01T07:10:45;1.92;;;1.67;;
23304;SDS011;11821;51.456;8.844;2022-08-01T07:13:11;1.70;;;1.60;;
23304;SDS011;11821;51.456;8.844;2022-08-01T07:15:37;1.60;;;1.50;;
23304;SDS011;11821;51.456;8.844;2022-08-01T07:18:04;1.65;;;1.55;;
23304;SDS011;11821;51.456;8.844;2022-08-01T07:20:30;2.10;;;2.00;;
23304;SDS011;11821;51.456;8.844;2022-08-01T07:22:56;1.70;;;1.60;;
23304;SDS011;11821;51.456;8.844;2022-08-01T07:25:22;2.15;;;1.45;;
23304;SDS011;11821;51.456;8.844;2022-08-01T07:27:49;2.10;;;1.90;;
23304;SDS011;11821;51.456;8.844;2022-08-01T07:30:15;2.20;;;1.60;;
23304;SDS011;11821;51.456;8.844;2022-08-01T07:32:41;1.88;;;1.77;;
23304;SDS011;11821;51.456;8.844;2022-08-01T07:35:07;2.10;;;1.90;;
23304;SDS011;11821;51.456;8.844;2022-08-01T07:37:34;1.67;;;1.58;;
23304;SDS011;11821;51.456;8.844;2022-08-01T07:40:00;1.85;;;1.40;;
23304;SDS011;11821;51.456;8.844;2022-08-01T07:42:27;2.85;;;1.90;;
23304;SDS011;11821;51.456;8.844;2022-08-01T07:44:53;2.67;;;1.60;;
23304;SDS011;11821;51.456;8.844;2022-08-01T07:47:26;2.03;;;1.80;;
23304;SDS011;11821;51.456;8.844;2022-08-01T07:49:58;2.13;;;1.60;;
23304;SDS011;11821;51.456;8.844;2022-08-01T07:52:26;2.20;;;1.60;;
23304;SDS011;11821;51.456;8.844;2022-08-01T07:54:52;1.95;;;1.70;;
23304;SDS011;11821;51.456;8.844;2022-08-01T07:57:19;2.65;;;1.88;;
23304;SDS011;11821;51.456;8.844;2022-08-01T07:59:45;2.08;;;1.98;;
23304;SDS011;11821;51.456;8.844;2022-08-01T08:02:11;2.10;;;1.90;;
23304;SDS011;11821;51.456;8.844;2022-08-01T08:04:37;1.65;;;1.55;;
23304;SDS011;11821;51.456;8.844;2022-08-01T08:07:03;1.73;;;1.60;;
23304;SDS011;11821;51.456;8.844;2022-08-01T08:09:29;1.63;;;1.52;;
23304;SDS011;11821;51.456;8.844;2022-08-01T08:11:56;1.50;;;1.40;;
23304;SDS011;11821;51.456;8.844;2022-08-01T08:14:22;2.45;;;1.30;;
23304;SDS011;11821;51.456;8.844;2022-08-01T08:16:49;1.50;;;1.40;;
23304;SDS011;11821;51.456;8.844;2022-08-01T08:19:16;1.88;;;1.65;;
23304;SDS011;11821;51.456;8.844;2022-08-01T08:21:43;1.70;;;1.60;;
23304;SDS011;11821;51.456;8.844;2022-08-01T08:24:09;1.15;;;1.00;;
23304;SDS011;11821;51.456;8.844;2022-08-01T08:26:45;1.20;;;1.10;;
23304;SDS011;11821;51.456;8.844;2022-08-01T08:29:19;1.10;;;1.10;;
23304;SDS011;11821;51.456;8.844;2022-08-01T08:31:46;3.50;;;1.17;;
23304;SDS011;11821;51.456;8.844;2022-08-01T08:34:15;2.67;;;1.00;;
23304;SDS011;11821;51.456;8.844;2022-08-01T08:36:42;3.10;;;1.00;;
23304;SDS011;11821;51.456;8.844;2022-08-01T08:39:08;0.70;;;0.70;;
23304;SDS011;11821;51.456;8.844;2022-08-01T08:41:34;2.60;;;0.80;;
23304;SDS011;11821;51.456;8.844;2022-08-01T08:44:02;0.82;;;0.70;;
23304;SDS011;11821;51.456;8.844;2022-08-01T08:46:29;1.40;;;1.00;;
23304;SDS011;11821;51.456;8.844;2022-08-01T08:48:58;0.95;;;0.90;;
23304;SDS011;11821;51.456;8.844;2022-08-01T08:51:26;0.70;;;0.70;;
23304;SDS011;11821;51.456;8.844;2022-08-01T08:53:56;0.80;;;0.80;;
23304;SDS011;11821;51.456;8.844;2022-08-01T08:56:23;1.65;;;1.10;;
23304;SDS011;11821;51.456;8.844;2022-08-01T08:58:51;5.35;;;1.00;;
23304;SDS011;11821;51.456;8.844;2022-08-01T09:01:17;1.13;;;1.10;;
23304;SDS011;11821;51.456;8.844;2022-08-01T09:03:44;1.33;;;0.90;;
23304;SDS011;11821;51.456;8.844;2022-08-01T09:06:10;0.80;;;0.80;;
23304;SDS011;11821;51.456;8.844;2022-08-01T09:08:37;1.15;;;0.90;;
23304;SDS011;11821;51.456;8.844;2022-08-01T09:11:03;1.10;;;0.90;;
23304;SDS011;11821;51.456;8.844;2022-08-01T09:13:30;1.58;;;1.10;;
23304;SDS011;11821;51.456;8.844;2022-08-01T09:15:56;1.35;;;0.90;;
23304;SDS011;11821;51.456;8.844;2022-08-01T09:18:36;1.00;;;1.00;;
23304;SDS011;11821;51.456;8.844;2022-08-01T09:21:15;1.00;;;0.90;;
23304;SDS011;11821;51.456;8.844;2022-08-01T09:23:52;2.88;;;1.10;;
23304;SDS011;11821;51.456;8.844;2022-08-01T09:26:30;2.15;;;1.00;;
23304;SDS011;11821;51.456;8.844;2022-08-01T09:28:59;2.35;;;1.10;;
23304;SDS011;11821;51.456;8.844;2022-08-01T09:31:27;1.10;;;0.90;;
23304;SDS011;11821;51.456;8.844;2022-08-01T09:33:56;1.52;;;0.80;;
23304;SDS011;11821;51.456;8.844;2022-08-01T09:36:25;1.25;;;1.20;;
23304;SDS011;11821;51.456;8.844;2022-08-01T09:38:53;1.02;;;0.80;;
23304;SDS011;11821;51.456;8.844;2022-08-01T09:41:28;1.10;;;0.85;;
23304;SDS011;11821;51.456;8.844;2022-08-01T09:43:56;1.30;;;0.80;;
23304;SDS011;11821;51.456;8.844;2022-08-01T09:46:23;0.90;;;0.90;;
23304;SDS011;11821;51.456;8.844;2022-08-01T09:48:54;0.90;;;0.75;;
23304;SDS011;11821;51.456;8.844;2022-08-01T09:54:01;0.93;;;0.82;;
23304;SDS011;11821;51.456;8.844;2022-08-01T09:56:40;1.05;;;0.80;;
23304;SDS011;11821;51.456;8.844;2022-08-01T09:59:08;1.13;;;1.00;;
23304;SDS011;11821;51.456;8.844;2022-08-01T10:01:45;1.02;;;0.95;;
23304;SDS011;11821;51.456;8.844;2022-08-01T10:04:14;0.90;;;0.90;;
23304;SDS011;11821;51.456;8.844;2022-08-01T10:06:41;1.05;;;1.05;;
23304;SDS011;11821;51.456;8.844;2022-08-01T10:09:10;1.10;;;1.00;;
23304;SDS011;11821;51.456;8.844;2022-08-01T10:11:40;1.25;;;0.70;;
23304;SDS011;11821;51.456;8.844;2022-08-01T10:14:07;0.85;;;0.80;;
23304;SDS011;11821;51.456;8.844;2022-08-01T10:16:34;0.60;;;0.60;;
23304;SDS011;11821;51.456;8.844;2022-08-01T10:19:02;0.80;;;0.80;;
23304;SDS011;11821;51.456;8.844;2022-08-01T10:21:32;1.02;;;0.65;;
23304;SDS011;11821;51.456;8.844;2022-08-01T10:24:02;1.75;;;0.60;;
23304;SDS011;11821;51.456;8.844;2022-08-01T10:26:32;0.77;;;0.70;;
23304;SDS011;11821;51.456;8.844;2022-08-01T10:28:59;1.27;;;0.70;;
23304;SDS011;11821;51.456;8.844;2022-08-01T10:31:27;1.00;;;0.90;;
23304;SDS011;11821;51.456;8.844;2022-08-01T10:33:57;0.90;;;0.90;;
23304;SDS011;11821;51.456;8.844;2022-08-01T10:36:23;1.08;;;0.98;;
23304;SDS011;11821;51.456;8.844;2022-08-01T10:38:50;1.35;;;1.25;;
23304;SDS011;11821;51.456;8.844;2022-08-01T10:41:18;1.10;;;1.10;;
23304;SDS011;11821;51.456;8.844;2022-08-01T10:43:44;1.50;;;1.40;;
23304;SDS011;11821;51.456;8.844;2022-08-01T10:46:12;1.42;;;1.27;;
23304;SDS011;11821;51.456;8.844;2022-08-01T10:51:42;1.45;;;1.30;;
23304;SDS011;11821;51.456;8.844;2022-08-01T10:54:10;2.67;;;1.40;;
23304;SDS011;11821;51.456;8.844;2022-08-01T10:56:44;1.70;;;1.60;;
23304;SDS011;11821;51.456;8.844;2022-08-01T10:59:20;2.00;;;1.90;;
23304;SDS011;11821;51.456;8.844;2022-08-01T11:02:01;1.70;;;1.60;;
23304;SDS011;11821;51.456;8.844;2022-08-01T11:04:33;1.90;;;1.80;;
23304;SDS011;11821;51.456;8.844;2022-08-01T11:07:23;2.05;;;1.95;;
23304;SDS011;11821;51.456;8.844;2022-08-01T11:10:08;1.70;;;1.60;;
23304;SDS011;11821;51.456;8.844;2022-08-01T11:12:42;1.20;;;1.20;;
23304;SDS011;11821;51.456;8.844;2022-08-01T11:20:23;1.42;;;1.33;;
23304;SDS011;11821;51.456;8.844;2022-08-01T11:30:48;1.33;;;1.23;;
23304;SDS011;11821;51.456;8.844;2022-08-01T11:38:38;2.65;;;1.73;;
23304;SDS011;11821;51.456;8.844;2022-08-01T11:41:10;1.70;;;1.60;;
23304;SDS011;11821;51.456;8.844;2022-08-01T11:44:23;2.10;;;2.00;;
23304;SDS011;11821;51.456;8.844;2022-08-01T11:49:22;2.22;;;2.10;;
23304;SDS011;11821;51.456;8.844;2022-08-01T11:54:54;2.25;;;2.15;;
23304;SDS011;11821;51.456;8.844;2022-08-01T11:57:24;2.80;;;2.58;;
23304;SDS011;11821;51.456;8.844;2022-08-01T11:59:59;2.40;;;2.25;;
23304;SDS011;11821;51.456;8.844;2022-08-01T12:02:37;3.35;;;3.15;;
23304;SDS011;11821;51.456;8.844;2022-08-01T12:05:22;3.33;;;3.10;;
23304;SDS011;11821;51.456;8.844;2022-08-01T12:07:52;2.85;;;2.65;;
23304;SDS011;11821;51.456;8.844;2022-08-01T12:10:19;3.13;;;2.92;;
23304;SDS011;11821;51.456;8.844;2022-08-01T12:12:51;3.53;;;3.33;;
23304;SDS011;11821;51.456;8.844;2022-08-01T12:15:22;4.32;;;3.60;;
23304;SDS011;11821;51.456;8.844;2022-08-01T12:17:56;2.90;;;2.70;;
23304;SDS011;11821;51.456;8.844;2022-08-01T12:20:26;3.28;;;3.08;;
23304;SDS011;11821;51.456;8.844;2022-08-01T12:23:13;4.55;;;3.55;;
23304;SDS011;11821;51.456;8.844;2022-08-01T12:25:41;3.42;;;3.13;;
23304;SDS011;11821;51.456;8.844;2022-08-01T12:28:11;3.10;;;2.90;;
23304;SDS011;11821;51.456;8.844;2022-08-01T12:30:40;2.60;;;2.40;;
23304;SDS011;11821;51.456;8.844;2022-08-01T12:33:07;2.42;;;2.33;;
23304;SDS011;11821;51.456;8.844;2022-08-01T12:35:35;3.90;;;2.80;;
23304;SDS011;11821;51.456;8.844;2022-08-01T12:38:04;3.00;;;2.80;;
23304;SDS011;11821;51.456;8.844;2022-08-01T12:40:32;2.47;;;2.28;;
23304;SDS011;11821;51.456;8.844;2022-08-01T12:43:01;2.50;;;2.25;;
23304;SDS011;11821;51.456;8.844;2022-08-01T12:45:33;2.70;;;1.90;;
23304;SDS011;11821;51.456;8.844;2022-08-01T12:48:02;1.80;;;1.70;;
23304;SDS011;11821;51.456;8.844;2022-08-01T12:50:34;1.73;;;1.63;;
23304;SDS011;11821;51.456;8.844;2022-08-01T12:53:04;1.75;;;1.65;;
23304;SDS011;11821;51.456;8.844;2022-08-01T12:55:31;1.73;;;1.50;;
23304;SDS011;11821;51.456;8.844;2022-08-01T13:00:37;1.80;;;1.70;;
23304;SDS011;11821;51.456;8.844;2022-08-01T13:05:53;1.38;;;1.27;;
23304;SDS011;11821;51.456;8.844;2022-08-01T13:08:21;1.80;;;1.70;;
23304;SDS011;11821;51.456;8.844;2022-08-01T13:10:48;1.45;;;1.35;;
23304;SDS011;11821;51.456;8.844;2022-08-01T13:13:16;1.23;;;1.23;;
23304;SDS011;11821;51.456;8.844;2022-08-01T13:15:45;1.30;;;1.20;;
23304;SDS011;11821;51.456;8.844;2022-08-01T13:18:28;1.42;;;1.30;;
23304;SDS011;11821;51.456;8.844;2022-08-01T13:21:18;1.13;;;1.13;;
23304;SDS011;11821;51.456;8.844;2022-08-01T13:26:40;1.33;;;1.20;;
23304;SDS011;11821;51.456;8.844;2022-08-01T13:29:10;1.83;;;1.70;;
23304;SDS011;11821;51.456;8.844;2022-08-01T13:31:39;1.60;;;1.50;;
23304;SDS011;11821;51.456;8.844;2022-08-01T13:34:06;1.15;;;1.10;;
23304;SDS011;11821;51.456;8.844;2022-08-01T13:36:33;1.45;;;1.15;;
23304;SDS011;11821;51.456;8.844;2022-08-01T13:39:00;2.28;;;1.08;;
23304;SDS011;11821;51.456;8.844;2022-08-01T13:41:45;1.23;;;1.13;;
23304;SDS011;11821;51.456;8.844;2022-08-01T13:44:13;1.35;;;1.25;;
23304;SDS011;11821;51.456;8.844;2022-08-01T13:46:41;1.00;;;1.00;;
23304;SDS011;11821;51.456;8.844;2022-08-01T13:49:10;1.10;;;1.00;;
23304;SDS011;11821;51.456;8.844;2022-08-01T13:51:37;0.95;;;0.95;;
23304;SDS011;11821;51.456;8.844;2022-08-01T13:54:09;0.90;;;0.90;;
23304;SDS011;11821;51.456;8.844;2022-08-01T13:56:35;0.90;;;0.90;;
23304;SDS011;11821;51.456;8.844;2022-08-01T13:59:01;2.33;;;1.00;;
23304;SDS011;11821;51.456;8.844;2022-08-01T14:01:28;0.95;;;0.95;;
23304;SDS011;11821;51.456;8.844;2022-08-01T14:03:54;2.70;;;1.02;;
23304;SDS011;11821;51.456;8.844;2022-08-01T14:06:20;1.17;;;1.13;;
23304;SDS011;11821;51.456;8.844;2022-08-01T14:08:48;0.90;;;0.90;;
23304;SDS011;11821;51.456;8.844;2022-08-01T14:11:17;0.90;;;0.90;;
23304;SDS011;11821;51.456;8.844;2022-08-01T14:13:44;2.95;;;1.10;;
23304;SDS011;11821;51.456;8.844;2022-08-01T14:16:11;1.30;;;1.00;;
23304;SDS011;11821;51.456;8.844;2022-08-01T14:18:37;1.08;;;0.98;;
23304;SDS011;11821;51.456;8.844;2022-08-01T14:21:03;1.38;;;1.02;;
23304;SDS011;11821;51.456;8.844;2022-08-01T14:23:30;0.73;;;0.73;;
23304;SDS011;11821;51.456;8.844;2022-08-01T14:25:56;2.15;;;1.17;;
23304;SDS011;11821;51.456;8.844;2022-08-01T14:28:22;1.10;;;0.85;;
23304;SDS011;11821;51.456;8.844;2022-08-01T14:30:49;1.17;;;0.82;;
23304;SDS011;11821;51.456;8.844;2022-08-01T14:33:16;0.85;;;0.80;;
23304;SDS011;11821;51.456;8.844;2022-08-01T14:35:42;0.80;;;0.80;;
23304;SDS011;11821;51.456;8.844;2022-08-01T14:38:08;1.00;;;1.00;;
23304;SDS011;11821;51.456;8.844;2022-08-01T14:40:34;1.25;;;1.00;;
23304;SDS011;11821;51.456;8.844;2022-08-01T14:43:01;1.23;;;1.13;;
23304;SDS011;11821;51.456;8.844;2022-08-01T14:45:27;0.90;;;0.90;;
23304;SDS011;11821;51.456;8.844;2022-08-01T14:47:54;1.15;;;0.90;;
23304;SDS011;11821;51.456;8.844;2022-08-01T14:50:20;1.00;;;1.00;;
23304;SDS011;11821;51.456;8.844;2022-08-01T14:52:46;1.08;;;1.00;;
23304;SDS011;11821;51.456;8.844;2022-08-01T14:55:12;0.80;;;0.80;;
23304;SDS011;11821;51.456;8.844;2022-08-01T14:57:39;0.90;;;0.90;;
23304;SDS011;11821;51.456;8.844;2022-08-01T15:00:07;2.00;;;0.93;;
23304;SDS011;11821;51.456;8.844;2022-08-01T15:02:39;1.15;;;0.88;;
23304;SDS011;11821;51.456;8.844;2022-08-01T15:05:05;1.13;;;1.13;;
23304;SDS011;11821;51.456;8.844;2022-08-01T15:07:32;0.88;;;0.88;;
23304;SDS011;11821;51.456;8.844;2022-08-01T15:09:58;0.80;;;0.80;;
23304;SDS011;11821;51.456;8.844;2022-08-01T15:12:25;0.82;;;0.82;;
23304;SDS011;11821;51.456;8.844;2022-08-01T15:14:52;0.70;;;0.70;;
23304;SDS011;11821;51.456;8.844;2022-08-01T15:17:19;0.90;;;0.90;;
23304;SDS011;11821;51.456;8.844;2022-08-01T15:19:48;1.45;;;0.93;;
23304;SDS011;11821;51.456;8.844;2022-08-01T15:22:16;0.60;;;0.52;;
23304;SDS011;11821;51.456;8.844;2022-08-01T15:24:42;0.93;;;0.90;;
23304;SDS011;11821;51.456;8.844;2022-08-01T15:27:09;0.95;;;0.80;;
23304;SDS011;11821;51.456;8.844;2022-08-01T15:29:36;3.42;;;0.95;;
23304;SDS011;11821;51.456;8.844;2022-08-01T15:32:03;0.80;;;0.80;;
23304;SDS011;11821;51.456;8.844;2022-08-01T15:34:30;0.60;;;0.60;;
23304;SDS011;11821;51.456;8.844;2022-08-01T15:36:57;1.52;;;1.00;;
23304;SDS011;11821;51.456;8.844;2022-08-01T15:39:23;0.73;;;0.73;;
23304;SDS011;11821;51.456;8.844;2022-08-01T15:41:50;0.80;;;0.80;;
23304;SDS011;11821;51.456;8.844;2022-08-01T15:44:16;0.95;;;0.90;;
23304;SDS011;11821;51.456;8.844;2022-08-01T15:46:46;1.30;;;0.80;;